地図

経路データ

SID SEASON NUMBER BASIN SUBBASIN NAME ISO_TIME NATURE LAT LON WMO_WIND WMO_PRES WMO_AGENCY TRACK_TYPE DIST2LAND LANDFALL IFLAG USA_AGENCY USA_ATCF_ID USA_LAT USA_LON USA_RECORD USA_STATUS USA_WIND USA_PRES USA_SSHS USA_R34_NE USA_R34_SE USA_R34_SW USA_R34_NW USA_R50_NE USA_R50_SE USA_R50_SW USA_R50_NW USA_R64_NE USA_R64_SE USA_R64_SW USA_R64_NW USA_POCI USA_ROCI USA_RMW USA_EYE TOKYO_LAT TOKYO_LON TOKYO_GRADE TOKYO_WIND TOKYO_PRES TOKYO_R50_DIR TOKYO_R50_LONG TOKYO_R50_SHORT TOKYO_R30_DIR TOKYO_R30_LONG TOKYO_R30_SHORT TOKYO_LAND CMA_LAT CMA_LON CMA_CAT CMA_WIND CMA_PRES HKO_LAT HKO_LON HKO_CAT HKO_WIND HKO_PRES NEWDELHI_LAT NEWDELHI_LON NEWDELHI_GRADE NEWDELHI_WIND NEWDELHI_PRES NEWDELHI_CI NEWDELHI_DP NEWDELHI_POCI REUNION_LAT REUNION_LON REUNION_TYPE REUNION_WIND REUNION_PRES REUNION_TNUM REUNION_CI REUNION_RMW REUNION_R34_NE REUNION_R34_SE REUNION_R34_SW REUNION_R34_NW REUNION_R50_NE REUNION_R50_SE REUNION_R50_SW REUNION_R50_NW REUNION_R64_NE REUNION_R64_SE REUNION_R64_SW REUNION_R64_NW BOM_LAT BOM_LON BOM_TYPE BOM_WIND BOM_PRES BOM_TNUM BOM_CI BOM_RMW BOM_R34_NE BOM_R34_SE BOM_R34_SW BOM_R34_NW BOM_R50_NE BOM_R50_SE BOM_R50_SW BOM_R50_NW BOM_R64_NE BOM_R64_SE BOM_R64_SW BOM_R64_NW BOM_ROCI BOM_POCI BOM_EYE BOM_POS_METHOD BOM_PRES_METHOD NADI_LAT NADI_LON NADI_CAT NADI_WIND NADI_PRES WELLINGTON_LAT WELLINGTON_LON WELLINGTON_WIND WELLINGTON_PRES DS824_LAT DS824_LON DS824_STAGE DS824_WIND DS824_PRES TD9636_LAT TD9636_LON TD9636_STAGE TD9636_WIND TD9636_PRES TD9635_LAT TD9635_LON TD9635_WIND TD9635_PRES TD9635_ROCI NEUMANN_LAT NEUMANN_LON NEUMANN_CLASS NEUMANN_WIND NEUMANN_PRES MLC_LAT MLC_LON MLC_CLASS MLC_WIND MLC_PRES USA_GUST BOM_GUST BOM_GUST_PER REUNION_GUST REUNION_GUST_PER USA_SEAHGT USA_SEARAD_NE USA_SEARAD_SE USA_SEARAD_SW USA_SEARAD_NW STORM_SPEED STORM_DIR
1893163N13092 1893 16 NI BB NOT_NAMED 1893-06-12 00:00:00 TS 12.9000 91.8000 main 428 427 _________O____ -1 12.9000 91.8000 TC 45 3 292
1893163N13092 1893 16 NI BB NOT_NAMED 1893-06-12 03:00:00 TS 12.9650 91.6350 main 435 435 _________PO___ -1 12.9975 91.5525 TC 45 12.9000 91.8000 3 4 293
1893163N13092 1893 16 NI BB NOT_NAMED 1893-06-12 06:00:00 TS 13.0670 91.3883 main 442 442 _________OP___ -1 13.1000 91.3000 TC 45 13.0176 91.5208 3 5 293
1893163N13092 1893 16 NI BB NOT_NAMED 1893-06-12 09:00:00 TS 13.1734 91.1328 main 457 457 _________PP___ -1 13.2075 91.0425 TC 45 13.1280 91.2531 3 5 293
1893163N13092 1893 16 NI BB NOT_NAMED 1893-06-12 12:00:00 TS 13.2622 90.9044 main 466 466 _________OP___ -1 13.3000 90.8000 TC 45 13.2244 91.0089 3 5 290
1893163N13092 1893 16 NI BB NOT_NAMED 1893-06-12 15:00:00 TS 13.3250 90.6962 main 482 482 _________PO___ -1 13.3500 90.5925 TC 45 13.3000 90.8000 3 4 287
1893163N13092 1893 16 NI BB NOT_NAMED 1893-06-12 18:00:00 TS 13.3767 90.5149 main 493 493 _________OP___ -1 13.4000 90.4000 TC 45 13.3533 90.6298 3 4 289
1893163N13092 1893 16 NI BB NOT_NAMED 1893-06-12 21:00:00 TS 13.4371 90.3557 main 501 501 _________PP___ -1 13.4698 90.2448 TC 45 13.4043 90.4667 3 4 294
1893163N13092 1893 16 NI BB NOT_NAMED 1893-06-13 00:00:00 TS 13.5391 90.1351 main 522 516 _________OP___ -1 13.6000 90.0000 TC 45 13.4782 90.2702 3 6 296
1893163N13092 1893 16 NI BB NOT_NAMED 1893-06-13 03:00:00 TS 13.7138 89.7688 main 538 538 _________PO___ -1 13.8277 89.5376 TC 45 13.6000 90.0000 3 9 297
1893163N13092 1893 16 NI BB NOT_NAMED 1893-06-13 06:00:00 TS 13.9542 89.2922 main 572 572 _________OP___ -1 14.1000 89.0000 TC 45 13.8084 89.5844 3 11 298
1893163N13092 1893 16 NI BB NOT_NAMED 1893-06-13 09:00:00 TS 14.2104 88.8117 main 613 613 _________PP___ -1 14.3574 88.5275 TC 45 14.0633 89.0959 3 11 299
1893163N13092 1893 16 NI BB NOT_NAMED 1893-06-13 12:00:00 TS 14.4683 88.3422 main 617 571 _________OP___ -1 14.6000 88.1000 TC 45 14.3365 88.5843 3 10 300
1893163N13092 1893 16 NI BB NOT_NAMED 1893-06-13 15:00:00 TS 14.7037 87.9174 main 571 532 _________PO___ -1 14.8074 87.7349 TC 45 14.6000 88.1000 3 9 300
1893163N13092 1893 16 NI BB NOT_NAMED 1893-06-13 18:00:00 TS 14.9110 87.5548 main 532 487 _________OP___ -1 15.0000 87.4000 TC 45 14.8221 87.7097 3 8 301
1893163N13092 1893 16 NI BB NOT_NAMED 1893-06-13 21:00:00 TS 15.1185 87.1985 main 487 448 _________PP___ -1 15.2075 87.0425 TC 45 15.0295 87.3546 3 8 301
1893163N13092 1893 16 NI BB NOT_NAMED 1893-06-14 00:00:00 TS 15.3111 86.8611 main 448 411 _________OP___ -1 15.4000 86.7000 TC 45 15.2221 87.0222 3 7 300
1893163N13092 1893 16 NI BB NOT_NAMED 1893-06-14 03:00:00 TS 15.4787 86.5499 main 404 375 _________PO___ -1 15.5574 86.3999 TC 45 15.4000 86.7000 3 7 298
1893163N13092 1893 16 NI BB NOT_NAMED 1893-06-14 06:00:00 TS 15.6321 86.2318 main 375 338 _________OP___ -1 15.7000 86.1000 TC 45 15.5642 86.3635 3 7 296
1893163N13092 1893 16 NI BB NOT_NAMED 1893-06-14 09:00:00 TS 15.7824 85.8923 main 338 312 _________PP___ -1 15.8500 85.7500 TC 45 15.7148 86.0347 3 7 295
1893163N13092 1893 16 NI BB NOT_NAMED 1893-06-14 12:00:00 TS 15.9290 85.5568 main 312 277 _________OP___ -1 16.0000 85.4000 TC 45 15.8580 85.7135 3 7 295
1893163N13092 1893 16 NI BB NOT_NAMED 1893-06-14 15:00:00 TS 16.0750 85.2462 main 269 246 _________PO___ -1 16.1499 85.0924 TC 45 16.0000 85.4000 3 6 297
1893163N13092 1893 16 NI BB NOT_NAMED 1893-06-14 18:00:00 TS 16.2144 84.9744 main 246 215 _________OP___ -1 16.3000 84.8000 TC 45 16.1288 85.1488 3 6 298
1893163N13092 1893 16 NI BB NOT_NAMED 1893-06-14 21:00:00 TS 16.3441 84.7241 main 215 177 _________PP___ -1 16.4271 84.5521 TC 45 16.2610 84.8960 3 6 298
1893163N13092 1893 16 NI BB NOT_NAMED 1893-06-15 00:00:00 TS 16.5064 84.3977 main 177 125 _________OP___ -1 16.6000 84.2000 TC 45 16.4128 84.5953 3 9 297
1893163N13092 1893 16 NI BB NOT_NAMED 1893-06-15 03:00:00 TS 16.7426 83.9014 main 125 64 _________PO___ -1 16.8852 83.6027 TC 41 16.6000 84.2000 3 12 295
1893163N13092 1893 16 NI BB NOT_NAMED 1893-06-15 06:00:00 TS 17.0058 83.2691 main 64 15 _________OP___ -1 17.2000 82.9000 TC 37 16.8115 83.6382 3 13 292
1893163N13092 1893 16 NI BB NOT_NAMED 1893-06-15 09:00:00 TS 17.2480 82.6158 main 10 0 _________PP___ -1 17.4348 82.2495 TC 33 17.0613 82.9820 3 14 292
1893163N13092 1893 16 NI BB NOT_NAMED 1893-06-15 12:00:00 TS 17.5276 81.9424 main 0 0 _________OP___ -1 17.7000 81.6000 TC 30 17.3552 82.2848 3 14 296
1893163N13092 1893 16 NI BB NOT_NAMED 1893-06-15 15:00:00 TS 17.8812 81.2637 main 0 0 _________PO___ -1 18.0625 80.9275 TC 30 17.7000 81.6000 1 15 302
1893163N13092 1893 16 NI BB NOT_NAMED 1893-06-15 18:00:00 TS 18.3183 80.6141 main 0 0 _________OP___ -1 18.5000 80.3000 TC 30 18.1366 80.9281 1 15 308
1893163N13092 1893 16 NI BB NOT_NAMED 1893-06-15 21:00:00 TS 18.8228 80.0065 main 0 0 _________PP___ -1 19.0300 79.7254 TC 30 18.6157 80.2877 1 14 313
1893163N13092 1893 16 NI BB NOT_NAMED 1893-06-16 00:00:00 TS 19.2934 79.5141 main 0 0 _________OP___ -1 19.5000 79.3000 TC 30 19.0868 79.7281 1 11 316
1893163N13092 1893 16 NI BB NOT_NAMED 1893-06-16 03:00:00 TS 19.6186 79.1910 main 0 0 _________PO___ -1 19.7373 79.0820 TC 30 19.5000 79.3000 1 7 320
1893163N13092 1893 16 NI BB NOT_NAMED 1893-06-16 06:00:00 TS 19.8442 79.0187 main 0 0 _________OP___ -1 19.9000 79.0000 TC 30 19.7885 79.0374 1 5 331
1893163N13092 1893 16 NI BB NOT_NAMED 1893-06-16 09:00:00 TS 20.0756 78.9153 main 0 0 _________PP___ -1 20.1350 78.9200 TC 30 20.0161 78.9106 1 5 345
1893163N13092 1893 16 NI BB NOT_NAMED 1893-06-16 12:00:00 TS 20.3054 78.8893 main 0 0 _________OP___ -1 20.4000 78.9000 TC 30 20.2108 78.8786 1 5 0
1893163N13092 1893 16 NI BB NOT_NAMED 1893-06-16 15:00:00 TS 20.5575 78.9175 main 0 0 _________PO___ -1 20.7150 78.9349 TC 30 20.4000 78.9000 1 5 7
1893163N13092 1893 16 NI BB NOT_NAMED 1893-06-16 18:00:00 TS 20.8308 78.9573 main 0 0 _________OP___ -1 21.0000 79.0000 TC 30 20.6615 78.9146 1 5 10
1893163N13092 1893 16 NI BB NOT_NAMED 1893-06-16 21:00:00 TS 21.0563 79.0135 main 0 0 _________PP___ -1 21.1950 79.0575 TC 30 20.9175 78.9695 1 4 15
1893163N13092 1893 16 NI BB NOT_NAMED 1893-06-17 00:00:00 TS 21.2198 79.0698 main 0 0 _________OP___ -1 21.3000 79.1000 TC 30 21.1397 79.0397 1 3 20
1893163N13092 1893 16 NI BB NOT_NAMED 1893-06-17 03:00:00 TS 21.3112 79.1038 main 0 0 _________PO___ -1 21.3225 79.1075 TC 30 21.3000 79.1000 1 1 19
1893163N13092 1893 16 NI BB NOT_NAMED 1893-06-17 06:00:00 TS 21.3323 79.1072 main 0 0 _________OP___ -1 21.3000 79.1000 TC 30 21.3647 79.1145 1 0 0
1893163N13092 1893 16 NI BB NOT_NAMED 1893-06-17 09:00:00 TS 21.3337 79.1075 main 0 0 _________PP___ -1 21.3000 79.1000 TC 30 21.3675 79.1151 1 0 0
1893163N13092 1893 16 NI BB NOT_NAMED 1893-06-17 12:00:00 TS 21.3183 79.1041 main 0 0 _________OP___ -1 21.3000 79.1000 TC 30 21.3366 79.1082 1 0 211
1893163N13092 1893 16 NI BB NOT_NAMED 1893-06-17 15:00:00 TS 21.3000 79.1000 main 0 0 _________PO___ -1 21.3000 79.1000 TC 30 21.3000 79.1000 1 0 0
1893163N13092 1893 16 NI BB NOT_NAMED 1893-06-17 18:00:00 TS 21.3000 79.1000 main 0 0 _________OP___ -1 21.3000 79.1000 TC 30 21.3000 79.1000 1 0 0
1893163N13092 1893 16 NI BB NOT_NAMED 1893-06-17 21:00:00 TS 21.3000 79.1000 main 0 0 _________PP___ -1 21.3000 79.1000 TC 30 21.3000 79.1000 1 0 0
1893163N13092 1893 16 NI BB NOT_NAMED 1893-06-18 00:00:00 TS 21.3000 79.1000 main 0 0 _________OP___ -1 21.3000 79.1000 TC 30 21.3000 79.1000 1 0 0
1893163N13092 1893 16 NI BB NOT_NAMED 1893-06-18 03:00:00 TS 21.3000 79.1000 main 0 0 _________PO___ -1 21.3000 79.1000 TC 30 21.3000 79.1000 1 0 0
1893163N13092 1893 16 NI BB NOT_NAMED 1893-06-18 06:00:00 TS 21.3000 79.1000 main 0 0 _________OP___ -1 21.3000 79.1000 TC 30 21.3000 79.1000 1 0 0
1893163N13092 1893 16 NI BB NOT_NAMED 1893-06-18 09:00:00 TS 21.3000 79.1000 main 0 0 _________PP___ -1 21.3000 79.1000 TC 30 21.3000 79.1000 1 0 0
1893163N13092 1893 16 NI BB NOT_NAMED 1893-06-18 12:00:00 TS 21.3000 79.1000 main 0 0 _________OP___ -1 21.3000 79.1000 TC 30 21.3000 79.1000 1 0 0
1893163N13092 1893 16 NI BB NOT_NAMED 1893-06-18 15:00:00 TS 21.3000 79.1000 main 0 0 _________PO___ -1 21.3000 79.1000 TC 30 21.3000 79.1000 1 0 209
1893163N13092 1893 16 NI BB NOT_NAMED 1893-06-18 18:00:00 TS 21.2654 79.0860 main 0 0 _________OP___ -1 21.3000 79.1000 TC 30 21.2309 79.0719 1 1 207
1893163N13092 1893 16 NI BB NOT_NAMED 1893-06-18 21:00:00 TS 21.2137 79.0629 main 0 0 _________PP___ -1 21.2550 79.0776 TC 30 21.1724 79.0482 1 0 0
1893163N13092 1893 16 NI BB NOT_NAMED 1893-06-19 00:00:00 TS 21.2389 79.0752 main 0 0 _________OP___ -1 21.3000 79.1000 TC 30 21.1777 79.0503 1 2 24
1893163N13092 1893 16 NI BB NOT_NAMED 1893-06-19 03:00:00 TS 21.4088 79.1600 main 0 0 _________PO___ -1 21.5175 79.2201 TC 30 21.3000 79.1000 1 6 23
1893163N13092 1893 16 NI BB NOT_NAMED 1893-06-19 06:00:00 TS 21.7657 79.3100 main 0 0 _________OP___ -1 21.9000 79.4000 TC 30 21.6313 79.2199 1 9 20
1893163N13092 1893 16 NI BB NOT_NAMED 1893-06-19 09:00:00 TS 22.2626 79.4943 main 0 0 _________PP___ -1 22.4500 79.5997 TC 30 22.0751 79.3889 1 11 19
1893163N13092 1893 16 NI BB NOT_NAMED 1893-06-19 12:00:00 TS 22.7782 79.6943 main 0 0 _________OP___ -1 23.0000 79.8000 TC 30 22.5563 79.5886 1 10 21
1893163N13092 1893 16 NI BB NOT_NAMED 1893-06-19 15:00:00 TS 23.1762 79.8714 main 0 0 _________PO___ -1 23.3524 79.9428 TC 30 23.0000 79.8000 1 8 26
1893163N13092 1893 16 NI BB NOT_NAMED 1893-06-19 18:00:00 TS 23.4562 80.0469 main 0 0 _________OP___ -1 23.6000 80.1000 TC 30 23.3484 80.0070 1 6 34
1893163N13092 1893 16 NI BB NOT_NAMED 1893-06-19 21:00:00 TS 23.6906 80.2557 main 0 0 _________PP___ -1 23.8077 80.3272 TC 30 23.6125 80.2080 1 6 42
1893163N13092 1893 16 NI BB NOT_NAMED 1893-06-20 00:00:00 TS 23.8802 80.4699 main 0 0 _________OP___ -1 24.0000 80.6000 TC 30 23.8204 80.4049 1 4 45
1893163N13092 1893 16 NI BB NOT_NAMED 1893-06-20 03:00:00 NR 24.0000 80.6000 main 0 __________O___ -1 TC 24.0000 80.6000 1 3 44

IBTrACS Databaseについて

本データベースは、米国NOAAが公開する1842年以降の世界の熱帯低気圧のベストトラックデータアーカイブInternational Best Track Archive for Climate Stewardship (IBTrACS)を、ウェブで閲覧しやすい形式に変換したものです。

最終更新日:2021-10-08